createdAt,value
2023-04-02T00:00:10.542Z,98208.19
2023-04-02T00:03:15.464Z,98217.84
2023-04-02T00:06:30.275Z,98222.31
2023-04-02T00:09:36.376Z,98205.41
2023-04-02T00:12:38.612Z,98215.94
2023-04-02T00:15:47.330Z,98214.44
2023-04-02T00:18:53.553Z,98224.13
2023-04-02T00:21:57.340Z,98224.34
2023-04-02T00:25:02.718Z,98217.66
2023-04-02T00:28:04.935Z,98217.78
2023-04-02T00:31:10.698Z,98223.84
2023-04-02T00:34:23.905Z,98234.00
2023-04-02T00:37:29.513Z,98233.34
2023-04-02T00:40:31.965Z,98235.09
2023-04-02T00:43:39.734Z,98234.47
2023-04-02T00:46:47.321Z,98223.63
2023-04-02T00:49:57.044Z,98233.16
2023-04-02T00:53:04.061Z,98229.97
2023-04-02T00:56:16.755Z,98238.59
2023-04-02T00:59:29.402Z,98235.44
2023-04-02T01:02:34.058Z,98233.78
2023-04-02T01:05:36.405Z,98238.44
2023-04-02T01:09:03.659Z,98242.25
2023-04-02T01:12:30.901Z,98243.88
2023-04-02T01:15:50.388Z,98246.06
2023-04-02T01:19:02.008Z,98246.84
2023-04-02T01:22:22.770Z,98252.38
2023-04-02T01:26:04.770Z,98243.81
2023-04-02T01:29:15.038Z,98261.84
2023-04-02T01:32:20.706Z,98264.09
2023-04-02T01:35:25.158Z,98254.31
2023-04-02T01:38:34.519Z,98270.41
2023-04-02T01:41:49.908Z,98273.38
2023-04-02T01:45:02.740Z,98276.75
2023-04-02T01:48:17.565Z,98275.97
2023-04-02T01:51:34.406Z,98273.75
2023-04-02T01:54:41.359Z,98280.97
2023-04-02T01:57:48.775Z,98276.59
2023-04-02T02:01:16.584Z,98275.84
2023-04-02T02:04:19.605Z,98281.63
2023-04-02T02:07:21.952Z,98281.28
2023-04-02T02:10:34.632Z,98287.25
2023-04-02T02:13:36.794Z,98284.78
2023-04-02T02:16:42.137Z,98293.09
2023-04-02T02:19:47.472Z,98295.44
2023-04-02T02:22:51.690Z,98297.50
2023-04-02T02:25:54.382Z,98293.19
2023-04-02T02:28:58.333Z,98290.63
2023-04-02T02:32:03.095Z,98298.00
2023-04-02T02:35:16.120Z,98291.03
2023-04-02T02:38:34.295Z,98300.38
2023-04-02T02:41:54.940Z,98306.13
2023-04-02T02:44:58.815Z,98305.06
2023-04-02T02:48:02.306Z,98311.03
2023-04-02T02:51:10.197Z,98307.41
2023-04-02T02:54:14.077Z,98310.78
2023-04-02T02:57:21.950Z,98314.19
2023-04-02T03:00:26.470Z,98309.97
2023-04-02T03:03:34.368Z,98312.56
2023-04-02T03:06:40.205Z,98314.31
2023-04-02T03:09:55.890Z,98324.59
2023-04-02T03:13:10.773Z,98319.09
2023-04-02T03:16:16.223Z,98318.88
2023-04-02T03:19:29.430Z,98322.72
2023-04-02T03:22:37.777Z,98318.06
2023-04-02T03:25:49.365Z,98313.84
2023-04-02T03:29:01.814Z,98314.78
2023-04-02T03:32:12.302Z,98324.13
2023-04-02T03:35:30.512Z,98329.06
2023-04-02T03:38:36.888Z,98315.25
2023-04-02T03:41:45.413Z,98325.03
2023-04-02T03:45:07.892Z,98325.63
2023-04-02T03:48:39.295Z,98329.72
2023-04-02T03:51:55.883Z,98337.69
2023-04-02T03:55:01.934Z,98321.53
2023-04-02T03:58:25.781Z,98339.78
2023-04-02T04:01:35.132Z,98338.19
2023-04-02T04:04:42.003Z,98341.31
2023-04-02T04:07:44.961Z,98336.88
2023-04-02T04:10:51.943Z,98354.19
2023-04-02T04:14:10.350Z,98355.13
2023-04-02T04:17:24.836Z,98351.03
2023-04-02T04:20:41.564Z,98348.19
2023-04-02T04:23:50.551Z,98357.44
2023-04-02T04:27:17.199Z,98358.75
2023-04-02T04:30:43.895Z,98370.00
2023-04-02T04:33:50.706Z,98369.53
2023-04-02T04:37:07.603Z,98372.66
2023-04-02T04:40:24.510Z,98377.34
2023-04-02T04:43:37.972Z,98380.50
2023-04-02T04:46:53.053Z,98385.16
2023-04-02T04:50:04.550Z,98385.03
2023-04-02T04:53:45.531Z,98388.78
2023-04-02T04:56:51.793Z,98393.69
2023-04-02T05:00:07.632Z,98399.00
2023-04-02T05:03:42.752Z,98391.38
2023-04-02T05:06:53.892Z,98396.78
2023-04-02T05:10:14.387Z,98396.44
2023-04-02T05:13:31.692Z,98404.16
2023-04-02T05:16:51.784Z,98409.28
2023-04-02T05:20:09.853Z,98403.56
2023-04-02T05:23:18.149Z,98405.69
2023-04-02T05:26:33.454Z,98414.22
2023-04-02T05:29:44.170Z,98410.47
2023-04-02T05:32:56.419Z,98412.69
2023-04-02T05:36:09.414Z,98419.63
2023-04-02T05:39:22.635Z,98431.78
2023-04-02T05:42:32.536Z,98427.81
2023-04-02T05:45:43.666Z,98433.88
2023-04-02T05:48:51.831Z,98436.13
2023-04-02T05:51:58.705Z,98438.44
2023-04-02T05:55:12.585Z,98446.41
2023-04-02T05:58:35.358Z,98446.06
2023-04-02T06:01:56.172Z,98452.38
2023-04-02T06:05:12.600Z,98455.31
2023-04-02T06:08:25.658Z,98459.63
2023-04-02T06:11:32.921Z,98457.75
2023-04-02T06:14:37.310Z,98466.34
2023-04-02T06:17:59.342Z,98466.53
2023-04-02T06:21:03.197Z,98472.88
2023-04-02T06:24:09.449Z,98464.19
2023-04-02T06:27:18.874Z,98479.66
2023-04-02T06:30:31.476Z,98481.66
2023-04-02T06:33:33.443Z,98492.31
2023-04-02T06:36:35.455Z,98491.94
2023-04-02T06:39:42.216Z,98491.75
2023-04-02T06:42:46.668Z,98502.63
2023-04-02T06:46:21.937Z,98507.56
2023-04-02T06:49:46.299Z,98510.97
2023-04-02T06:53:21.575Z,98516.56
2023-04-02T06:56:42.356Z,98519.72
2023-04-02T06:59:45.842Z,98515.53
2023-04-02T07:02:55.118Z,98519.59
2023-04-02T07:06:00.346Z,98522.06
2023-04-02T07:09:04.694Z,98522.63
2023-04-02T07:12:14.744Z,98520.72
2023-04-02T07:15:23.965Z,98527.03
2023-04-02T07:18:31.190Z,98527.00
2023-04-02T07:21:35.079Z,98522.03
2023-04-02T07:24:37.564Z,98526.59
2023-04-02T07:27:39.399Z,98527.09
2023-04-02T07:30:41.572Z,98532.69
2023-04-02T07:33:43.654Z,98530.09
2023-04-02T07:36:45.565Z,98527.38
2023-04-02T07:39:47.489Z,98527.81
2023-04-02T07:42:49.749Z,98533.00
2023-04-02T07:45:51.778Z,98537.69
2023-04-02T07:48:53.730Z,98531.78
2023-04-02T07:51:55.610Z,98549.94
2023-04-02T07:54:59.885Z,98557.25
2023-04-02T07:58:01.914Z,98560.66
2023-04-02T08:01:04.476Z,98560.69
2023-04-02T08:04:07.888Z,98561.91
2023-04-02T08:07:09.819Z,98561.38
2023-04-02T08:10:12.482Z,98564.75
2023-04-02T08:13:14.964Z,98566.22
2023-04-02T08:16:16.998Z,98570.56
2023-04-02T08:19:19.595Z,98577.09
2023-04-02T08:22:21.401Z,98584.94
2023-04-02T08:25:23.239Z,98581.53
2023-04-02T08:28:25.358Z,98580.84
2023-04-02T08:31:27.594Z,98591.72
2023-04-02T08:34:29.533Z,98598.19
2023-04-02T08:37:31.658Z,98597.66
2023-04-02T08:40:38.068Z,98601.41
2023-04-02T08:43:40.799Z,98602.22
2023-04-02T08:46:53.937Z,98612.91
2023-04-02T08:50:06.498Z,98607.38
2023-04-02T08:53:19.493Z,98610.91
2023-04-02T08:56:37.034Z,98608.53
2023-04-02T08:59:41.900Z,98607.91
2023-04-02T09:02:52.501Z,98612.66
2023-04-02T09:05:55.509Z,98612.75
2023-04-02T09:08:58.942Z,98613.59
2023-04-02T09:12:06.786Z,98618.97
2023-04-02T09:15:41.494Z,98617.19
2023-04-02T09:18:45.500Z,98615.66
2023-04-02T09:21:57.118Z,98619.56
2023-04-02T09:25:02.225Z,98611.34
2023-04-02T09:28:05.172Z,98619.88
2023-04-02T09:31:22.266Z,98611.38
2023-04-02T09:34:35.069Z,98612.13
2023-04-02T09:37:37.404Z,98616.34
2023-04-02T09:41:02.251Z,98614.94
2023-04-02T09:44:31.096Z,98621.00
2023-04-02T09:47:33.035Z,98621.94
2023-04-02T09:50:35.381Z,98624.06
2023-04-02T09:53:42.426Z,98617.50
2023-04-02T09:57:02.724Z,98623.28
2023-04-02T10:00:29.783Z,98612.22
2023-04-02T10:03:35.896Z,98609.94
2023-04-02T10:06:49.697Z,98610.06
2023-04-02T10:09:58.917Z,98618.53
2023-04-02T10:13:09.259Z,98615.63
2023-04-02T10:16:33.028Z,98616.56
2023-04-02T10:19:39.296Z,98613.03
2023-04-02T10:22:42.097Z,98618.75
2023-04-02T10:25:57.645Z,98623.13
2023-04-02T10:29:09.477Z,98625.31
2023-04-02T10:32:44.345Z,98627.66
2023-04-02T10:36:02.450Z,98620.34
2023-04-02T10:39:16.089Z,98625.00
2023-04-02T10:42:35.375Z,98627.19
2023-04-02T10:46:00.512Z,98621.63
2023-04-02T10:49:22.122Z,98627.22
2023-04-02T10:52:31.003Z,98621.19
2023-04-02T10:55:43.158Z,98624.19
2023-04-02T10:58:59.100Z,98632.81
2023-04-02T11:02:23.439Z,98634.72
2023-04-02T11:05:30.369Z,98629.13
2023-04-02T11:08:45.928Z,98634.81
2023-04-02T11:11:52.870Z,98632.09
2023-04-02T11:14:56.552Z,98630.84
2023-04-02T11:17:58.669Z,98626.03
2023-04-02T11:21:03.508Z,98618.75
2023-04-02T11:24:06.322Z,98626.47
2023-04-02T11:27:11.377Z,98619.84
2023-04-02T11:30:16.020Z,98623.41
2023-04-02T11:33:44.787Z,98615.38
2023-04-02T11:36:51.046Z,98619.00
2023-04-02T11:40:12.857Z,98624.50
2023-04-02T11:43:35.365Z,98620.56
2023-04-02T11:46:42.172Z,98624.88
2023-04-02T11:50:00.428Z,98622.09
2023-04-02T11:53:36.163Z,98623.41
2023-04-02T11:56:52.520Z,98619.91
2023-04-02T12:00:21.005Z,98610.75
2023-04-02T12:03:38.579Z,98614.84
2023-04-02T12:06:47.164Z,98615.41
2023-04-02T12:10:17.150Z,98614.97
2023-04-02T12:13:39.541Z,98618.84
2023-04-02T12:16:41.506Z,98610.53
2023-04-02T12:19:49.096Z,98605.50
2023-04-02T12:22:54.477Z,98594.72
2023-04-02T12:25:58.630Z,98602.56
2023-04-02T12:29:23.139Z,98600.19
2023-04-02T12:32:29.799Z,98599.91
2023-04-02T12:35:36.534Z,98590.81
2023-04-02T12:38:47.847Z,98594.47
2023-04-02T12:41:49.801Z,98589.97
2023-04-02T12:44:51.708Z,98588.69
2023-04-02T12:47:53.869Z,98592.19
2023-04-02T12:50:57.107Z,98592.56
2023-04-02T12:53:59.642Z,98585.44
2023-04-02T12:57:30.990Z,98590.38
2023-04-02T13:00:33.804Z,98590.22
2023-04-02T13:03:36.168Z,98589.66
2023-04-02T13:06:40.962Z,98594.72
2023-04-02T13:09:47.660Z,98588.50
2023-04-02T13:12:55.970Z,98580.19
2023-04-02T13:16:04.877Z,98589.72
2023-04-02T13:19:17.349Z,98587.34
2023-04-02T13:22:32.067Z,98589.25
2023-04-02T13:25:36.761Z,98589.16
2023-04-02T13:28:39.282Z,98593.25
2023-04-02T13:31:41.706Z,98608.16
2023-04-02T13:34:43.688Z,98597.25
2023-04-02T13:37:45.691Z,98598.63
2023-04-02T13:40:48.027Z,98606.84
2023-04-02T13:43:51.331Z,98604.09
2023-04-02T13:46:54.525Z,98611.88
2023-04-02T13:49:56.514Z,98621.69
2023-04-02T13:53:04.590Z,98625.81
2023-04-02T13:56:08.487Z,98619.56
2023-04-02T13:59:10.929Z,98615.06
2023-04-02T14:02:17.330Z,98612.13
2023-04-02T14:05:32.530Z,98622.31
2023-04-02T14:09:02.179Z,98617.22
2023-04-02T14:12:31.590Z,98619.88
2023-04-02T14:15:58.883Z,98625.84
2023-04-02T14:19:21.306Z,98627.25
2023-04-02T14:22:46.368Z,98619.84
2023-04-02T14:26:18.843Z,98623.06
2023-04-02T14:29:26.989Z,98619.03
2023-04-02T14:32:44.711Z,98617.53
2023-04-02T14:36:03.489Z,98613.44
2023-04-02T14:39:23.017Z,98615.16
2023-04-02T14:42:43.023Z,98630.63
2023-04-02T14:46:03.235Z,98641.13
2023-04-02T14:49:25.094Z,98654.81
2023-04-02T14:52:31.676Z,98652.50
2023-04-02T14:55:42.539Z,98665.53
2023-04-02T14:58:48.920Z,98671.69
2023-04-02T15:01:57.235Z,98687.44
2023-04-02T15:05:19.529Z,98685.66
2023-04-02T15:08:26.582Z,98690.91
2023-04-02T15:11:38.444Z,98693.97
2023-04-02T15:14:48.680Z,98698.94
2023-04-02T15:17:50.661Z,98710.69
2023-04-02T15:21:18.222Z,98711.72
2023-04-02T15:24:34.256Z,98720.41
2023-04-02T15:27:57.222Z,98717.00
2023-04-02T15:31:07.296Z,98712.84
2023-04-02T15:34:20.213Z,98719.09
2023-04-02T15:37:50.093Z,98732.09
2023-04-02T15:41:04.656Z,98730.09
2023-04-02T15:44:16.906Z,98749.78
2023-04-02T15:47:36.695Z,98744.53
2023-04-02T15:51:01.509Z,98753.25
2023-04-02T15:54:16.467Z,98773.22
2023-04-02T15:57:42.694Z,98782.31
2023-04-02T16:01:05.336Z,98801.81
2023-04-02T16:04:52.845Z,98791.00
2023-04-02T16:07:54.590Z,98802.84
2023-04-02T16:10:56.754Z,98818.25
2023-04-02T16:14:09.137Z,98813.31
2023-04-02T16:17:24.925Z,98812.41
2023-04-02T16:20:52.003Z,98817.84
2023-04-02T16:23:54.007Z,98818.47
2023-04-02T16:27:14.828Z,98817.25
2023-04-02T16:30:44.467Z,98823.09
2023-04-02T16:34:24.470Z,98823.53
2023-04-02T16:37:38.507Z,98838.22
2023-04-02T16:41:04.768Z,98824.22
2023-04-02T16:44:22.511Z,98839.44
2023-04-02T16:47:51.740Z,98852.72
2023-04-02T16:51:21.533Z,98856.22
2023-04-02T16:55:12.470Z,98866.06
2023-04-02T16:58:14.532Z,98861.19
2023-04-02T17:01:29.846Z,98872.78
2023-04-02T17:04:53.694Z,98875.47
2023-04-02T17:08:10.714Z,98873.00
2023-04-02T17:11:24.034Z,98880.28
2023-04-02T17:14:43.415Z,98887.53
2023-04-02T17:17:45.588Z,98873.94
2023-04-02T17:20:48.237Z,98874.28
2023-04-02T17:23:56.611Z,98891.63
2023-04-02T17:27:05.775Z,98899.06
2023-04-02T17:30:23.729Z,98899.97
2023-04-02T17:33:28.483Z,98895.47
2023-04-02T17:36:51.927Z,98909.63
2023-04-02T17:40:21.312Z,98898.88
2023-04-02T17:43:38.582Z,98903.44
2023-04-02T17:47:08.459Z,98905.63
2023-04-02T17:50:35.376Z,98922.56
2023-04-02T17:53:57.090Z,98924.47
2023-04-02T17:57:07.864Z,98935.81
2023-04-02T18:00:22.053Z,98910.63
2023-04-02T18:03:49.240Z,98924.75
2023-04-02T18:07:00.362Z,98927.28
2023-04-02T18:10:34.587Z,98936.53
2023-04-02T18:13:40.255Z,98953.00
2023-04-02T18:17:20.602Z,98964.19
2023-04-02T18:20:35.533Z,98974.34
2023-04-02T18:23:47.236Z,98973.28
2023-04-02T18:26:55.247Z,98981.41
2023-04-02T18:30:26.893Z,98969.38
2023-04-02T18:33:57.590Z,98977.81
2023-04-02T18:37:15.314Z,98979.25
2023-04-02T18:40:38.648Z,98984.56
2023-04-02T18:44:01.564Z,98989.34
2023-04-02T18:47:31.771Z,98987.84
2023-04-02T18:50:37.089Z,98994.47
2023-04-02T18:53:41.471Z,98997.94
2023-04-02T18:56:43.941Z,99005.53
2023-04-02T19:00:25.751Z,99006.94
2023-04-02T19:03:50.379Z,99013.56
2023-04-02T19:07:02.993Z,99006.28
2023-04-02T19:10:21.510Z,99022.97
2023-04-02T19:13:23.935Z,99006.34
2023-04-02T19:16:37.473Z,99027.84
2023-04-02T19:20:04.468Z,99034.94
2023-04-02T19:23:30.155Z,99030.22
2023-04-02T19:27:03.925Z,99025.44
2023-04-02T19:30:24.667Z,99040.06
2023-04-02T19:33:42.579Z,99050.56
2023-04-02T19:36:51.478Z,99065.91
2023-04-02T19:40:08.862Z,99047.66
2023-04-02T19:43:11.633Z,99044.28
2023-04-02T19:46:14.160Z,99051.06
2023-04-02T19:49:28.422Z,99050.13
2023-04-02T19:52:30.858Z,99041.69
2023-04-02T19:55:34.717Z,99059.72
2023-04-02T19:58:37.251Z,99066.84
2023-04-02T20:01:39.667Z,99056.28
2023-04-02T20:04:42.542Z,99065.63
2023-04-02T20:07:44.863Z,99070.25
2023-04-02T20:10:47.675Z,99074.47
2023-04-02T20:13:50.565Z,99078.09
2023-04-02T20:16:52.833Z,99089.06
2023-04-02T20:19:55.115Z,99097.63
2023-04-02T20:22:57.287Z,99092.72
2023-04-02T20:25:59.478Z,99098.19
2023-04-02T20:29:02.046Z,99110.81
2023-04-02T20:32:04.233Z,99094.13
2023-04-02T20:35:06.907Z,99091.06
2023-04-02T20:38:09.109Z,99092.78
2023-04-02T20:41:11.248Z,99115.38
2023-04-02T20:44:14.012Z,99107.38
2023-04-02T20:47:16.381Z,99110.81
2023-04-02T20:50:18.392Z,99121.47
2023-04-02T20:53:20.944Z,99113.88
2023-04-02T20:56:26.746Z,99114.84
2023-04-02T20:59:28.799Z,99120.16
2023-04-02T21:02:32.220Z,99120.28
2023-04-02T21:05:34.180Z,99129.72
2023-04-02T21:08:37.036Z,99117.59
2023-04-02T21:11:39.606Z,99122.69
2023-04-02T21:14:41.518Z,99118.22
2023-04-02T21:17:43.514Z,99120.16
2023-04-02T21:20:45.475Z,99130.44
2023-04-02T21:23:47.760Z,99124.09
2023-04-02T21:26:50.422Z,99141.88
2023-04-02T21:29:52.684Z,99127.66
2023-04-02T21:32:54.727Z,99134.59
2023-04-02T21:35:56.867Z,99152.13
2023-04-02T21:39:01.378Z,99142.81
2023-04-02T21:42:03.822Z,99141.53
2023-04-02T21:45:06.478Z,99150.03
2023-04-02T21:48:08.393Z,99153.13
2023-04-02T21:51:18.159Z,99155.16
2023-04-02T21:54:20.181Z,99162.91
2023-04-02T21:57:22.052Z,99170.03
2023-04-02T22:00:26.532Z,99157.94
2023-04-02T22:03:31.943Z,99153.06
2023-04-02T22:06:39.412Z,99141.91
2023-04-02T22:09:41.338Z,99153.38
2023-04-02T22:12:43.266Z,99151.84
2023-04-02T22:15:45.098Z,99154.94
2023-04-02T22:18:48.782Z,99154.66
2023-04-02T22:21:50.764Z,99146.69
2023-04-02T22:24:52.772Z,99149.78
2023-04-02T22:27:54.617Z,99153.75
2023-04-02T22:31:15.636Z,99160.44
2023-04-02T22:34:17.756Z,99161.50
2023-04-02T22:37:19.650Z,99153.13
2023-04-02T22:40:21.685Z,99162.94
2023-04-02T22:43:23.652Z,99164.44
2023-04-02T22:46:26.819Z,99161.97
2023-04-02T22:49:28.847Z,99164.34
2023-04-02T22:52:30.782Z,99170.34
2023-04-02T22:55:32.711Z,99165.19
2023-04-02T22:58:35.692Z,99169.06
2023-04-02T23:01:37.778Z,99162.78
2023-04-02T23:04:40.454Z,99163.69
2023-04-02T23:07:42.337Z,99157.00
2023-04-02T23:10:44.229Z,99165.28
2023-04-02T23:13:48.979Z,99161.19
2023-04-02T23:16:50.879Z,99150.22
2023-04-02T23:19:52.847Z,99173.66
2023-04-02T23:22:54.728Z,99177.53
2023-04-02T23:26:11.976Z,99176.44
2023-04-02T23:29:14.294Z,99182.41
2023-04-02T23:32:17.039Z,99172.56
2023-04-02T23:35:18.935Z,99176.81
2023-04-02T23:38:20.947Z,99176.38
2023-04-02T23:41:24.908Z,99180.09
2023-04-02T23:44:27.099Z,99170.88
2023-04-02T23:47:28.948Z,99165.31
2023-04-02T23:50:30.958Z,99167.34
2023-04-02T23:53:34.526Z,99170.28
2023-04-02T23:56:37.210Z,99176.22
2023-04-02T23:59:40.301Z,99172.59
